KDMN/DMN METAR and TAF weather

Enter ICAO airport designator
Station Type Date Time Source
KDMN METAR 2019/12/12 11:53 UTC NOAA

KDMN 121153Z AUTO 27005KT 10SM CLR M01/M02 A3022 RMK AO2 SLP221 T10061022 10017 21011 51000


Station Type Date Time Source
KDMN Decoded METAR 2019/12/12 11:53 UTC NOAA

DEMING MUNICIPAL AIRPORT, NM, United States (KDMN) 32-16N 107-43W 1311M
Dec 12, 2019 - 06:53 AM EST / 2019.12.12 1153 UTC
Wind: from the W (270 degrees) at 6 MPH (5 KT):0
Visibility: 10 mile(s):0
Sky conditions: clear
Temperature: 30.9 F (-0.6 C)
Windchill: 24 F (-4 C):1
Dew Point: 28.0 F (-2.2 C)
Relative Humidity: 88%
Pressure (altimeter): 30.22 in. Hg (1023 hPa)
Pressure tendency: 0.00 inches (0.0 hPa) higher than three hours ago
ob: KDMN 121153Z AUTO 27005KT 10SM CLR M01/M02 A3022 RMK AO2 SLP221 T10061022 10017 21011 51000
cycle: 12

Station Type Date Time Source
KDMN TAF 2019/12/12 12:24 UTC NOAA

TAF KDMN 121123Z 1212/1312 31005KT P6SM SKC
FM121800 25011KT P6SM FEW250
FM130300 28005KT P6SM SCT250

Example: see airport list